createdAt,value
2022-10-28T00:02:22.415Z,3.55
2022-10-28T00:04:48.260Z,4.03
2022-10-28T00:07:14.101Z,3.50
2022-10-28T00:09:39.918Z,3.85
2022-10-28T00:12:05.833Z,4.00
2022-10-28T00:14:31.845Z,4.10
2022-10-28T00:16:57.592Z,3.92
2022-10-28T00:19:23.364Z,3.75
2022-10-28T00:21:49.259Z,3.50
2022-10-28T00:24:14.996Z,3.75
2022-10-28T00:26:42.029Z,3.40
2022-10-28T00:29:14.911Z,3.60
2022-10-28T00:31:41.341Z,3.38
2022-10-28T00:34:11.052Z,3.40
2022-10-28T00:36:40.313Z,3.72
2022-10-28T00:39:14.968Z,3.67
2022-10-28T00:41:46.834Z,3.15
2022-10-28T00:44:50.373Z,3.10
2022-10-28T00:47:22.090Z,3.70
2022-10-28T00:49:51.170Z,4.05
2022-10-28T00:52:23.710Z,3.10
2022-10-28T00:54:51.006Z,3.25
2022-10-28T00:57:23.561Z,3.30
2022-10-28T00:59:52.724Z,3.50
2022-10-28T01:02:19.690Z,3.25
2022-10-28T01:04:46.524Z,3.45
2022-10-28T01:07:13.011Z,3.30
2022-10-28T01:09:39.919Z,3.00
2022-10-28T01:12:30.871Z,3.33
2022-10-28T01:14:59.984Z,4.68
2022-10-28T01:17:49.874Z,2.90
2022-10-28T01:20:25.219Z,3.60
2022-10-28T01:26:07.051Z,2.60
2022-10-28T01:29:01.779Z,3.10
2022-10-28T01:31:31.879Z,3.40
2022-10-28T01:34:25.755Z,3.40
2022-10-28T01:40:51.348Z,2.50
2022-10-28T01:43:29.718Z,3.55
2022-10-28T01:45:59.546Z,3.00
2022-10-28T01:48:41.220Z,2.60
2022-10-28T01:51:13.023Z,2.90
2022-10-28T01:53:42.319Z,3.35
2022-10-28T01:56:13.606Z,2.90
2022-10-28T01:58:39.977Z,3.05
2022-10-28T02:01:08.496Z,3.50
2022-10-28T02:03:34.284Z,3.10
2022-10-28T02:06:04.486Z,2.70
2022-10-28T02:08:49.328Z,3.72
2022-10-28T02:11:30.170Z,2.80
2022-10-28T02:14:09.390Z,2.78
2022-10-28T02:16:54.348Z,3.13
2022-10-28T02:19:40.998Z,3.50
2022-10-28T02:22:14.897Z,2.92
2022-10-28T02:24:59.636Z,3.60
2022-10-28T02:27:47.681Z,2.78
2022-10-28T02:30:45.291Z,3.15
2022-10-28T02:33:16.825Z,2.85
2022-10-28T02:35:48.412Z,3.50
2022-10-28T02:38:21.103Z,3.17
2022-10-28T02:40:53.890Z,3.55
2022-10-28T02:43:22.373Z,3.28
2022-10-28T02:45:52.296Z,3.83
2022-10-28T02:48:28.033Z,3.50
2022-10-28T02:50:59.823Z,2.83
2022-10-28T02:53:32.493Z,2.65
2022-10-28T02:56:03.433Z,3.20
2022-10-28T02:58:37.819Z,3.78
2022-10-28T03:01:03.657Z,2.88
2022-10-28T03:03:29.453Z,3.22
2022-10-28T03:05:55.124Z,3.10
2022-10-28T03:08:20.977Z,3.42
2022-10-28T03:10:46.721Z,3.50
2022-10-28T03:13:12.423Z,3.25
2022-10-28T03:15:38.283Z,3.78
2022-10-28T03:18:04.054Z,3.60
2022-10-28T03:20:29.887Z,2.97
2022-10-28T03:22:56.188Z,3.22
2022-10-28T03:25:22.115Z,3.28
2022-10-28T03:27:47.929Z,3.17
2022-10-28T03:30:13.866Z,3.15
2022-10-28T03:32:42.435Z,3.67
2022-10-28T03:35:08.572Z,3.58
2022-10-28T03:37:34.557Z,3.28
2022-10-28T03:40:01.845Z,3.20
2022-10-28T03:42:28.542Z,3.75
2022-10-28T03:44:56.474Z,3.88
2022-10-28T03:47:22.246Z,3.17
2022-10-28T03:49:50.257Z,3.40
2022-10-28T03:52:16.103Z,3.55
2022-10-28T03:54:42.055Z,3.67
2022-10-28T03:57:07.868Z,3.25
2022-10-28T03:59:33.680Z,5.47
2022-10-28T04:01:59.584Z,3.88
2022-10-28T04:04:28.469Z,3.53
2022-10-28T04:06:56.421Z,3.47
2022-10-28T04:09:22.185Z,4.30
2022-10-28T04:11:48.660Z,3.85
2022-10-28T04:14:14.674Z,3.42
2022-10-28T04:16:40.416Z,3.33
2022-10-28T04:19:06.322Z,3.28
2022-10-28T04:21:32.394Z,3.58
2022-10-28T04:23:58.345Z,3.72
2022-10-28T04:26:24.142Z,3.40
2022-10-28T04:28:50.052Z,3.35
2022-10-28T04:31:16.022Z,3.50
2022-10-28T04:33:41.841Z,3.45
2022-10-28T04:36:07.935Z,4.43
2022-10-28T04:38:33.720Z,3.65
2022-10-28T04:40:59.747Z,3.90
2022-10-28T04:43:25.502Z,3.08
2022-10-28T04:45:51.769Z,4.18
2022-10-28T04:48:20.812Z,3.58
2022-10-28T04:50:46.671Z,4.05
2022-10-28T04:53:12.718Z,5.68
2022-10-28T04:55:38.808Z,4.20
2022-10-28T04:58:04.626Z,3.60
2022-10-28T05:00:30.836Z,3.88
2022-10-28T05:02:57.158Z,4.07
2022-10-28T05:05:23.106Z,4.00
2022-10-28T05:07:48.979Z,3.47
2022-10-28T05:10:15.621Z,4.32
2022-10-28T05:12:42.502Z,3.40
2022-10-28T05:15:09.128Z,3.60
2022-10-28T05:17:34.912Z,3.42
2022-10-28T05:20:00.696Z,3.83
2022-10-28T05:22:26.430Z,3.40
2022-10-28T05:24:52.199Z,3.63
2022-10-28T05:27:17.935Z,4.63
2022-10-28T05:29:43.706Z,3.92
2022-10-28T05:32:09.428Z,3.92
2022-10-28T05:34:35.515Z,3.53
2022-10-28T05:37:01.275Z,4.07
2022-10-28T05:39:27.028Z,5.57
2022-10-28T05:41:52.823Z,3.50
2022-10-28T05:44:18.580Z,4.88
2022-10-28T05:46:44.318Z,3.28
2022-10-28T05:49:10.037Z,3.90
2022-10-28T05:51:35.806Z,4.25
2022-10-28T05:54:01.542Z,3.78
2022-10-28T05:56:27.301Z,4.13
2022-10-28T05:58:53.024Z,4.15
2022-10-28T06:01:19.429Z,3.40
2022-10-28T06:03:45.216Z,3.45
2022-10-28T06:06:10.971Z,3.60
2022-10-28T06:08:36.755Z,3.75
2022-10-28T06:11:01.035Z,3.90
2022-10-28T06:13:26.807Z,3.92
2022-10-28T06:15:53.564Z,4.60
2022-10-28T06:18:20.655Z,3.80
2022-10-28T06:20:51.456Z,3.95
2022-10-28T06:23:17.249Z,3.88
2022-10-28T06:25:43.047Z,3.97
2022-10-28T06:28:10.426Z,3.63
2022-10-28T06:30:36.343Z,4.18
2022-10-28T06:33:02.082Z,3.88
2022-10-28T06:35:27.860Z,3.33
2022-10-28T06:37:55.283Z,3.88
2022-10-28T06:40:22.949Z,4.10
2022-10-28T06:42:56.648Z,4.07
2022-10-28T06:45:22.526Z,3.88
2022-10-28T06:47:54.453Z,4.03
2022-10-28T06:50:20.262Z,3.25
2022-10-28T06:55:17.064Z,4.38
2022-10-28T06:57:42.862Z,3.50
2022-10-28T07:00:09.186Z,4.13
2022-10-28T07:02:35.057Z,3.75
2022-10-28T07:05:00.812Z,4.32
2022-10-28T07:07:26.568Z,3.70
2022-10-28T07:09:52.299Z,3.65
2022-10-28T07:14:48.787Z,3.70
2022-10-28T07:17:14.520Z,3.60
2022-10-28T07:19:40.316Z,4.13
2022-10-28T07:22:06.116Z,4.30
2022-10-28T07:24:32.011Z,4.18
2022-10-28T07:26:57.957Z,3.60
2022-10-28T07:29:23.797Z,3.42
2022-10-28T07:31:54.020Z,5.25
2022-10-28T07:34:25.907Z,4.18
2022-10-28T07:36:54.461Z,3.65
2022-10-28T07:39:20.652Z,3.28
2022-10-28T07:41:46.906Z,4.85
2022-10-28T07:44:13.415Z,3.80
2022-10-28T07:46:39.747Z,3.90
2022-10-28T07:49:05.690Z,3.88
2022-10-28T07:51:31.684Z,3.70
2022-10-28T07:53:57.636Z,3.60
2022-10-28T07:56:24.037Z,4.13
2022-10-28T07:58:50.034Z,3.83
2022-10-28T08:01:18.170Z,3.53
2022-10-28T08:03:44.173Z,4.30
2022-10-28T08:06:16.909Z,4.13
2022-10-28T08:08:44.022Z,3.22
2022-10-28T08:11:15.370Z,3.90
2022-10-28T08:13:41.486Z,4.30
2022-10-28T08:16:08.313Z,3.90
2022-10-28T08:18:35.185Z,3.10
2022-10-28T08:21:02.343Z,3.97
2022-10-28T08:23:28.386Z,4.55
2022-10-28T08:25:54.562Z,4.22
2022-10-28T08:28:20.615Z,3.80
2022-10-28T08:30:57.022Z,4.97
2022-10-28T08:33:23.112Z,3.70
2022-10-28T08:35:50.846Z,3.50
2022-10-28T08:38:16.727Z,4.18
2022-10-28T08:41:01.214Z,3.88
2022-10-28T08:43:46.285Z,3.85
2022-10-28T08:46:28.798Z,3.38
2022-10-28T08:48:54.651Z,3.88
2022-10-28T08:51:36.503Z,3.10
2022-10-28T08:54:11.899Z,3.70
2022-10-28T08:56:48.347Z,4.38
2022-10-28T08:59:21.031Z,4.10
2022-10-28T09:01:51.275Z,4.15
2022-10-28T09:04:39.185Z,6.30
2022-10-28T09:07:12.046Z,4.03
2022-10-28T09:09:37.955Z,3.30
2022-10-28T09:12:46.135Z,3.92
2022-10-28T09:15:29.981Z,3.60
2022-10-28T09:18:03.501Z,3.28
2022-10-28T09:20:55.098Z,3.92
2022-10-28T09:23:21.457Z,3.80
2022-10-28T09:25:55.135Z,3.78
2022-10-28T09:28:32.656Z,3.90
2022-10-28T09:31:16.990Z,3.72
2022-10-28T09:33:58.112Z,4.10
2022-10-28T09:36:51.149Z,3.63
2022-10-28T09:39:23.994Z,3.22
2022-10-28T09:41:54.841Z,3.60
2022-10-28T09:44:30.190Z,3.35
2022-10-28T09:46:59.967Z,3.35
2022-10-28T09:49:30.196Z,3.67
2022-10-28T09:52:35.972Z,3.13
2022-10-28T09:55:08.094Z,3.05
2022-10-28T09:57:33.972Z,2.90
2022-10-28T09:59:59.955Z,3.50
2022-10-28T10:02:31.440Z,3.13
2022-10-28T10:04:59.464Z,3.78
2022-10-28T10:07:36.676Z,2.95
2022-10-28T10:10:13.236Z,2.70
2022-10-28T10:12:39.065Z,2.47
2022-10-28T10:15:10.769Z,2.70
2022-10-28T10:17:43.332Z,2.92
2022-10-28T10:20:11.957Z,2.95
2022-10-28T10:22:42.688Z,3.42
2022-10-28T10:25:17.800Z,2.97
2022-10-28T10:28:16.089Z,2.80
2022-10-28T10:30:48.949Z,3.00
2022-10-28T10:33:20.672Z,3.47
2022-10-28T10:35:59.077Z,3.47
2022-10-28T10:38:27.414Z,2.67
2022-10-28T10:40:53.761Z,3.30
2022-10-28T10:43:29.765Z,3.40
2022-10-28T10:46:20.626Z,3.13
2022-10-28T10:49:06.387Z,3.40
2022-10-28T10:51:32.167Z,2.80
2022-10-28T10:54:00.150Z,3.00
2022-10-28T10:56:29.045Z,3.50
2022-10-28T10:58:58.430Z,2.83
2022-10-28T11:01:27.543Z,3.35
2022-10-28T11:06:32.210Z,3.67
2022-10-28T11:09:01.833Z,3.22
2022-10-28T11:11:39.433Z,3.10
2022-10-28T11:14:08.168Z,3.42
2022-10-28T11:16:51.012Z,3.00
2022-10-28T11:19:25.914Z,3.08
2022-10-28T11:22:16.365Z,4.07
2022-10-28T11:25:10.017Z,3.70
2022-10-28T11:27:57.473Z,3.65
2022-10-28T11:30:46.023Z,4.93
2022-10-28T11:33:30.672Z,3.38
2022-10-28T11:36:09.109Z,2.70
2022-10-28T11:39:17.703Z,2.78
2022-10-28T11:41:57.009Z,3.13
2022-10-28T11:44:37.860Z,3.70
2022-10-28T11:47:11.183Z,3.55
2022-10-28T11:49:46.105Z,3.25
2022-10-28T11:52:30.528Z,3.58
2022-10-28T11:55:02.196Z,3.60
2022-10-28T11:57:46.231Z,3.03
2022-10-28T12:00:17.653Z,3.70
2022-10-28T12:03:11.747Z,3.45
2022-10-28T12:05:49.639Z,3.60
2022-10-28T12:08:49.211Z,2.97
2022-10-28T12:11:17.751Z,3.40
2022-10-28T12:16:40.586Z,4.07
2022-10-28T12:19:18.946Z,3.20
2022-10-28T12:21:53.643Z,3.58
2022-10-28T12:24:23.260Z,3.17
2022-10-28T12:26:56.666Z,3.10
2022-10-28T12:29:40.659Z,2.88
2022-10-28T12:32:09.859Z,3.63
2022-10-28T12:34:50.118Z,3.85
2022-10-28T12:37:21.499Z,3.67
2022-10-28T12:39:56.456Z,3.08
2022-10-28T12:42:35.085Z,3.20
2022-10-28T12:45:06.145Z,3.65
2022-10-28T12:48:10.974Z,3.45
2022-10-28T12:50:44.397Z,3.15
2022-10-28T12:53:21.596Z,3.92
2022-10-28T12:55:58.104Z,3.75
2022-10-28T12:58:33.420Z,3.63
2022-10-28T13:01:03.905Z,3.90
2022-10-28T13:03:29.838Z,3.38
2022-10-28T13:06:14.207Z,3.35
2022-10-28T13:09:10.865Z,3.35
2022-10-28T13:12:14.434Z,2.97
2022-10-28T13:14:57.300Z,3.47
2022-10-28T13:17:44.663Z,2.92
2022-10-28T13:20:27.363Z,3.92
2022-10-28T13:23:11.250Z,3.95
2022-10-28T13:26:03.448Z,3.42
2022-10-28T13:28:33.737Z,3.72
2022-10-28T13:31:03.095Z,4.05
2022-10-28T13:33:31.404Z,4.10
2022-10-28T13:36:18.362Z,3.42
2022-10-28T13:39:28.662Z,3.40
2022-10-28T13:42:12.628Z,3.25
2022-10-28T13:45:01.418Z,3.88
2022-10-28T13:47:34.882Z,3.30
2022-10-28T13:50:06.859Z,3.55
2022-10-28T13:52:35.644Z,3.25
2022-10-28T13:55:13.224Z,3.88
2022-10-28T13:57:42.763Z,4.38
2022-10-28T14:00:17.361Z,3.72
2022-10-28T14:02:54.769Z,3.50
2022-10-28T14:05:44.130Z,3.05
2022-10-28T14:08:26.365Z,3.90
2022-10-28T14:11:04.784Z,4.30
2022-10-28T14:14:01.707Z,4.18
2022-10-28T14:16:28.374Z,3.58
2022-10-28T14:18:59.693Z,4.32
2022-10-28T14:22:02.130Z,3.58
2022-10-28T14:24:39.907Z,3.72
2022-10-28T14:27:08.309Z,3.50
2022-10-28T14:29:43.150Z,3.28
2022-10-28T14:32:30.811Z,3.70
2022-10-28T14:35:04.905Z,3.50
2022-10-28T14:38:08.419Z,3.45
2022-10-28T14:40:38.638Z,3.47
2022-10-28T14:43:17.531Z,3.90
2022-10-28T14:46:09.577Z,4.22
2022-10-28T14:48:45.038Z,4.57
2022-10-28T14:51:14.883Z,4.00
2022-10-28T14:53:42.656Z,4.88
2022-10-28T14:56:17.415Z,4.00
2022-10-28T14:58:43.971Z,4.80
2022-10-28T15:01:15.883Z,4.05
2022-10-28T15:04:01.246Z,6.72
2022-10-28T15:06:30.155Z,4.20
2022-10-28T15:09:01.806Z,3.50
2022-10-28T15:11:27.992Z,4.13
2022-10-28T15:13:53.805Z,4.30
2022-10-28T15:16:22.531Z,3.22
2022-10-28T15:18:51.260Z,3.85
2022-10-28T15:21:19.188Z,4.63
2022-10-28T15:23:56.894Z,4.38
2022-10-28T15:26:22.687Z,4.10
2022-10-28T15:28:48.515Z,3.60
2022-10-28T15:31:16.196Z,4.35
2022-10-28T15:33:42.325Z,4.18
2022-10-28T15:36:16.668Z,3.75
2022-10-28T15:39:03.860Z,4.07
2022-10-28T15:41:29.602Z,3.63
2022-10-28T15:43:58.477Z,5.13
2022-10-28T15:46:25.547Z,3.33
2022-10-28T15:48:56.634Z,3.85
2022-10-28T15:51:22.937Z,4.13
2022-10-28T15:53:53.303Z,5.20
2022-10-28T15:56:24.833Z,3.60
2022-10-28T15:59:21.099Z,3.92
2022-10-28T16:01:47.054Z,4.93
2022-10-28T16:04:22.077Z,5.22
2022-10-28T16:06:50.347Z,3.53
2022-10-28T16:09:34.788Z,4.10
2022-10-28T16:12:10.770Z,3.97
2022-10-28T16:14:42.961Z,4.30
2022-10-28T16:17:27.921Z,5.28
2022-10-28T16:19:56.276Z,5.22
2022-10-28T16:22:25.181Z,5.00
2022-10-28T16:24:52.846Z,4.10
2022-10-28T16:27:21.520Z,3.67
2022-10-28T16:29:47.994Z,4.97
2022-10-28T16:32:15.650Z,4.05
2022-10-28T16:34:41.522Z,3.78
2022-10-28T16:37:21.226Z,4.95
2022-10-28T16:39:47.321Z,4.00
2022-10-28T16:42:13.857Z,4.70
2022-10-28T16:44:39.786Z,5.05
2022-10-28T16:47:11.491Z,3.90
2022-10-28T16:49:37.392Z,3.90
2022-10-28T16:52:03.141Z,4.85
2022-10-28T16:54:29.380Z,4.10
2022-10-28T16:56:55.159Z,4.30
2022-10-28T16:59:21.069Z,4.65
2022-10-28T17:01:47.039Z,4.00
2022-10-28T17:04:12.870Z,3.83
2022-10-28T17:06:38.665Z,3.78
2022-10-28T17:09:04.421Z,4.22
2022-10-28T17:14:01.655Z,5.07
2022-10-28T17:16:27.446Z,5.80
2022-10-28T17:18:53.263Z,5.70
2022-10-28T17:21:19.035Z,4.75
2022-10-28T17:23:44.847Z,4.30
2022-10-28T17:26:10.573Z,4.47
2022-10-28T17:28:36.379Z,5.20
2022-10-28T17:31:06.936Z,4.70
2022-10-28T17:33:33.437Z,4.65
2022-10-28T17:36:04.602Z,5.05
2022-10-28T17:38:30.689Z,6.20
2022-10-28T17:40:57.225Z,6.20
2022-10-28T17:43:23.233Z,6.13
2022-10-28T17:45:49.727Z,5.53
2022-10-28T17:48:15.548Z,6.18
2022-10-28T17:50:43.347Z,6.95
2022-10-28T17:53:09.813Z,5.03
2022-10-28T17:55:35.638Z,4.25
2022-10-28T17:58:01.486Z,5.03
2022-10-28T18:00:27.229Z,4.15
2022-10-28T18:02:56.250Z,4.63
2022-10-28T18:05:22.341Z,4.68
2022-10-28T18:07:48.135Z,4.15
2022-10-28T18:10:15.641Z,4.70
2022-10-28T18:12:41.446Z,4.60
2022-10-28T18:15:08.874Z,4.25
2022-10-28T18:17:34.618Z,4.90
2022-10-28T18:20:01.363Z,4.97
2022-10-28T18:22:27.157Z,4.20
2022-10-28T18:24:54.343Z,5.07
2022-10-28T18:27:20.149Z,4.70
2022-10-28T18:29:46.043Z,5.95
2022-10-28T18:32:12.064Z,5.05
2022-10-28T18:34:37.874Z,5.53
2022-10-28T18:37:07.162Z,5.45
2022-10-28T18:39:33.017Z,4.78
2022-10-28T18:41:59.254Z,4.57
2022-10-28T18:44:31.271Z,4.75
2022-10-28T18:46:58.365Z,5.03
2022-10-28T18:49:24.121Z,4.53
2022-10-28T18:51:49.970Z,4.53
2022-10-28T18:54:18.453Z,5.25
2022-10-28T18:56:47.667Z,6.07
2022-10-28T18:59:14.539Z,4.75
2022-10-28T19:01:45.800Z,4.97
2022-10-28T19:04:13.504Z,5.50
2022-10-28T19:06:39.618Z,5.70
2022-10-28T19:09:06.783Z,4.95
2022-10-28T19:11:33.707Z,4.75
2022-10-28T19:14:04.647Z,4.93
2022-10-28T19:16:32.644Z,5.13
2022-10-28T19:18:59.712Z,5.20
2022-10-28T19:21:26.541Z,4.65
2022-10-28T19:23:52.865Z,4.88
2022-10-28T19:26:19.625Z,6.13
2022-10-28T19:28:47.753Z,5.80
2022-10-28T19:31:17.029Z,5.18
2022-10-28T19:33:44.536Z,5.07
2022-10-28T19:36:28.115Z,4.85
2022-10-28T19:38:55.478Z,5.60
2022-10-28T19:41:27.332Z,4.93
2022-10-28T19:43:57.947Z,4.85
2022-10-28T19:46:26.233Z,4.53
2022-10-28T19:48:53.686Z,5.47
2022-10-28T19:51:22.907Z,5.68
2022-10-28T19:53:52.856Z,4.80
2022-10-28T19:56:20.151Z,5.38
2022-10-28T19:58:52.502Z,5.10
2022-10-28T20:01:20.214Z,5.82
2022-10-28T20:03:49.268Z,5.65
2022-10-28T20:06:17.197Z,5.78
2022-10-28T20:08:45.642Z,5.07
2022-10-28T20:11:14.587Z,6.05
2022-10-28T20:13:40.999Z,5.10
2022-10-28T20:16:12.079Z,5.13
2022-10-28T20:18:38.617Z,4.35
2022-10-28T20:21:06.501Z,5.15
2022-10-28T20:23:34.879Z,5.63
2022-10-28T20:26:04.807Z,4.60
2022-10-28T20:28:30.853Z,5.20
2022-10-28T20:31:01.847Z,5.03
2022-10-28T20:33:28.858Z,5.40
2022-10-28T20:35:55.003Z,6.68
2022-10-28T20:38:21.452Z,4.93
2022-10-28T20:40:49.228Z,4.82
2022-10-28T20:43:16.631Z,5.78
2022-10-28T20:45:42.461Z,5.47
2022-10-28T20:48:08.255Z,5.30
2022-10-28T20:50:34.051Z,5.20
2022-10-28T20:52:59.817Z,5.32
2022-10-28T20:55:25.545Z,4.88
2022-10-28T20:57:51.324Z,5.30
2022-10-28T21:00:17.258Z,5.40
2022-10-28T21:02:43.145Z,5.40
2022-10-28T21:05:09.073Z,5.30
2022-10-28T21:07:35.274Z,4.90
2022-10-28T21:10:01.257Z,5.28
2022-10-28T21:12:27.009Z,5.10
2022-10-28T21:14:52.826Z,5.10
2022-10-28T21:17:18.660Z,5.20
2022-10-28T21:19:44.434Z,6.25
2022-10-28T21:22:10.145Z,5.88
2022-10-28T21:24:35.920Z,5.55
2022-10-28T21:27:01.637Z,5.72
2022-10-28T21:29:27.702Z,4.75
2022-10-28T21:31:53.502Z,5.95
2022-10-28T21:34:19.245Z,5.75
2022-10-28T21:36:45.023Z,5.75
2022-10-28T21:39:10.709Z,5.53
2022-10-28T21:41:36.475Z,5.65
2022-10-28T21:44:03.916Z,5.20
2022-10-28T21:46:29.736Z,6.05
2022-10-28T21:48:55.588Z,6.55
2022-10-28T21:51:21.364Z,5.53
2022-10-28T21:53:47.115Z,5.65
2022-10-28T21:56:17.544Z,6.15
2022-10-28T21:58:45.120Z,5.75
2022-10-28T22:01:16.578Z,5.88
2022-10-28T22:03:42.387Z,5.22
2022-10-28T22:06:08.453Z,5.65
2022-10-28T22:08:34.273Z,5.28
2022-10-28T22:11:05.909Z,6.05
2022-10-28T22:13:32.518Z,5.78
2022-10-28T22:16:03.965Z,5.65
2022-10-28T22:18:31.511Z,6.03
2022-10-28T22:21:03.609Z,5.85
2022-10-28T22:23:30.240Z,5.82
2022-10-28T22:26:06.495Z,6.13
2022-10-28T22:28:32.798Z,6.07
2022-10-28T22:30:59.812Z,5.50
2022-10-28T22:33:25.632Z,5.68
2022-10-28T22:36:02.643Z,6.03
2022-10-28T22:38:28.889Z,5.40
2022-10-28T22:41:10.625Z,5.20
2022-10-28T22:43:37.029Z,5.85
2022-10-28T22:46:03.739Z,6.35
2022-10-28T22:48:29.993Z,6.22
2022-10-28T22:50:55.784Z,5.70
2022-10-28T22:53:21.961Z,6.55
2022-10-28T22:55:48.479Z,5.90
2022-10-28T22:58:15.953Z,5.50
2022-10-28T23:00:42.327Z,5.72
2022-10-28T23:03:08.171Z,5.25
2022-10-28T23:05:33.987Z,5.20
2022-10-28T23:07:59.843Z,6.10
2022-10-28T23:10:26.496Z,5.28
2022-10-28T23:12:56.301Z,4.72
2022-10-28T23:15:23.538Z,5.82
2022-10-28T23:17:50.031Z,6.00
2022-10-28T23:20:17.140Z,5.38
2022-10-28T23:22:42.915Z,6.00
2022-10-28T23:25:08.844Z,6.15
2022-10-28T23:27:34.691Z,5.43
2022-10-28T23:30:00.443Z,5.70
2022-10-28T23:32:26.485Z,5.38
2022-10-28T23:34:52.236Z,5.25
2022-10-28T23:37:18.035Z,5.10
2022-10-28T23:39:43.823Z,5.15
2022-10-28T23:42:09.558Z,5.28
2022-10-28T23:44:36.701Z,4.90
2022-10-28T23:47:02.523Z,6.00
2022-10-28T23:49:28.870Z,5.55
2022-10-28T23:51:54.637Z,5.25
2022-10-28T23:54:20.416Z,4.63
2022-10-28T23:56:46.196Z,5.55
2022-10-28T23:59:11.985Z,5.28
